sensor_id;sensor_type;location;lat;lon;timestamp;temperature;humidity
28725;DHT22;43472;48.980;9.646;2024-02-21T00:01:38;7.60;99.90
28725;DHT22;43472;48.980;9.646;2024-02-21T00:06:40;7.80;99.90
28725;DHT22;43472;48.980;9.646;2024-02-21T00:11:42;7.70;99.90
28725;DHT22;43472;48.980;9.646;2024-02-21T00:16:43;7.60;99.90
28725;DHT22;43472;48.980;9.646;2024-02-21T00:21:45;7.60;99.90
28725;DHT22;43472;48.980;9.646;2024-02-21T00:26:47;7.60;99.90
28725;DHT22;43472;48.980;9.646;2024-02-21T00:31:49;7.60;99.90
28725;DHT22;43472;48.980;9.646;2024-02-21T00:36:51;7.60;99.90
28725;DHT22;43472;48.980;9.646;2024-02-21T00:41:53;7.50;99.90
28725;DHT22;43472;48.980;9.646;2024-02-21T00:46:55;7.60;99.90
28725;DHT22;43472;48.980;9.646;2024-02-21T00:51:57;7.70;99.90
28725;DHT22;43472;48.980;9.646;2024-02-21T00:57:00;7.90;99.90
28725;DHT22;43472;48.980;9.646;2024-02-21T01:02:02;7.90;99.90
28725;DHT22;43472;48.980;9.646;2024-02-21T01:07:04;7.90;99.90
28725;DHT22;43472;48.980;9.646;2024-02-21T01:12:06;8.00;99.90
28725;DHT22;43472;48.980;9.646;2024-02-21T01:17:08;9.10;99.90
28725;DHT22;43472;48.980;9.646;2024-02-21T01:22:11;7.90;99.90
28725;DHT22;43472;48.980;9.646;2024-02-21T01:27:13;7.80;99.90
28725;DHT22;43472;48.980;9.646;2024-02-21T01:32:15;8.00;99.90
28725;DHT22;43472;48.980;9.646;2024-02-21T01:37:18;8.20;99.90
28725;DHT22;43472;48.980;9.646;2024-02-21T01:42:20;8.30;99.90
28725;DHT22;43472;48.980;9.646;2024-02-21T01:47:22;8.40;99.90
28725;DHT22;43472;48.980;9.646;2024-02-21T01:52:24;8.40;99.90
28725;DHT22;43472;48.980;9.646;2024-02-21T01:57:26;8.50;99.90
28725;DHT22;43472;48.980;9.646;2024-02-21T02:02:31;8.50;99.90
28725;DHT22;43472;48.980;9.646;2024-02-21T02:07:33;8.60;99.90
28725;DHT22;43472;48.980;9.646;2024-02-21T02:12:35;8.50;99.90
28725;DHT22;43472;48.980;9.646;2024-02-21T02:17:37;8.50;99.90
28725;DHT22;43472;48.980;9.646;2024-02-21T02:22:41;8.50;99.90
28725;DHT22;43472;48.980;9.646;2024-02-21T02:27:45;8.50;99.90
28725;DHT22;43472;48.980;9.646;2024-02-21T02:32:47;8.50;99.90
28725;DHT22;43472;48.980;9.646;2024-02-21T02:37:50;8.50;99.90
28725;DHT22;43472;48.980;9.646;2024-02-21T02:42:52;8.50;99.90
28725;DHT22;43472;48.980;9.646;2024-02-21T02:47:57;8.60;99.90
28725;DHT22;43472;48.980;9.646;2024-02-21T02:52:59;8.70;99.90
28725;DHT22;43472;48.980;9.646;2024-02-21T02:58:01;8.90;99.90
28725;DHT22;43472;48.980;9.646;2024-02-21T03:03:04;8.60;99.90
28725;DHT22;43472;48.980;9.646;2024-02-21T03:08:06;8.60;99.90
28725;DHT22;43472;48.980;9.646;2024-02-21T03:13:09;8.70;99.90
28725;DHT22;43472;48.980;9.646;2024-02-21T03:18:11;8.70;99.90
28725;DHT22;43472;48.980;9.646;2024-02-21T03:23:13;8.70;99.90
28725;DHT22;43472;48.980;9.646;2024-02-21T03:28:15;8.70;99.90
28725;DHT22;43472;48.980;9.646;2024-02-21T03:33:17;8.60;99.90
28725;DHT22;43472;48.980;9.646;2024-02-21T03:38:21;8.00;99.90
28725;DHT22;43472;48.980;9.646;2024-02-21T03:43:23;8.00;99.90
28725;DHT22;43472;48.980;9.646;2024-02-21T03:48:25;8.20;99.90
28725;DHT22;43472;48.980;9.646;2024-02-21T03:53:27;7.90;99.90
28725;DHT22;43472;48.980;9.646;2024-02-21T03:58:33;7.60;99.90
28725;DHT22;43472;48.980;9.646;2024-02-21T04:03:35;7.90;99.90
28725;DHT22;43472;48.980;9.646;2024-02-21T04:08:38;8.00;99.90
28725;DHT22;43472;48.980;9.646;2024-02-21T04:13:41;7.90;99.90
28725;DHT22;43472;48.980;9.646;2024-02-21T04:18:43;8.20;99.90
28725;DHT22;43472;48.980;9.646;2024-02-21T04:23:45;8.10;99.90
28725;DHT22;43472;48.980;9.646;2024-02-21T04:28:47;8.00;99.90
28725;DHT22;43472;48.980;9.646;2024-02-21T04:33:49;8.00;99.90
28725;DHT22;43472;48.980;9.646;2024-02-21T04:38:51;7.90;99.90
28725;DHT22;43472;48.980;9.646;2024-02-21T04:43:53;7.90;99.90
28725;DHT22;43472;48.980;9.646;2024-02-21T04:48:55;7.90;99.90
28725;DHT22;43472;48.980;9.646;2024-02-21T04:53:58;7.80;99.90
28725;DHT22;43472;48.980;9.646;2024-02-21T04:59:00;7.90;99.90
28725;DHT22;43472;48.980;9.646;2024-02-21T05:04:03;7.60;99.90
28725;DHT22;43472;48.980;9.646;2024-02-21T05:09:06;7.50;99.90
28725;DHT22;43472;48.980;9.646;2024-02-21T05:14:08;7.50;99.90
28725;DHT22;43472;48.980;9.646;2024-02-21T05:19:10;7.40;99.90
28725;DHT22;43472;48.980;9.646;2024-02-21T05:24:12;7.40;99.90
28725;DHT22;43472;48.980;9.646;2024-02-21T05:29:14;7.30;99.90
28725;DHT22;43472;48.980;9.646;2024-02-21T05:34:20;7.30;99.90
28725;DHT22;43472;48.980;9.646;2024-02-21T05:39:22;7.10;99.90
28725;DHT22;43472;48.980;9.646;2024-02-21T05:44:25;6.90;99.90
28725;DHT22;43472;48.980;9.646;2024-02-21T05:49:28;6.90;99.90
28725;DHT22;43472;48.980;9.646;2024-02-21T05:54:30;6.70;99.90
28725;DHT22;43472;48.980;9.646;2024-02-21T05:59:34;6.70;99.90
28725;DHT22;43472;48.980;9.646;2024-02-21T06:04:38;6.70;99.90
28725;DHT22;43472;48.980;9.646;2024-02-21T06:09:41;6.70;99.90
28725;DHT22;43472;48.980;9.646;2024-02-21T06:14:43;6.30;99.90
28725;DHT22;43472;48.980;9.646;2024-02-21T06:19:45;6.30;99.90
28725;DHT22;43472;48.980;9.646;2024-02-21T06:24:47;6.40;99.90
28725;DHT22;43472;48.980;9.646;2024-02-21T06:29:49;6.30;99.90
28725;DHT22;43472;48.980;9.646;2024-02-21T06:34:51;6.40;99.90
28725;DHT22;43472;48.980;9.646;2024-02-21T06:39:54;6.50;99.90
28725;DHT22;43472;48.980;9.646;2024-02-21T06:44:56;6.40;99.90
28725;DHT22;43472;48.980;9.646;2024-02-21T06:49:57;6.40;99.90
28725;DHT22;43472;48.980;9.646;2024-02-21T06:55:00;6.60;99.90
28725;DHT22;43472;48.980;9.646;2024-02-21T07:00:02;6.70;99.90
28725;DHT22;43472;48.980;9.646;2024-02-21T07:05:05;6.70;99.90
28725;DHT22;43472;48.980;9.646;2024-02-21T07:10:07;6.80;99.90
28725;DHT22;43472;48.980;9.646;2024-02-21T07:15:09;6.90;99.90
28725;DHT22;43472;48.980;9.646;2024-02-21T07:20:11;7.00;99.90
28725;DHT22;43472;48.980;9.646;2024-02-21T07:25:13;7.10;99.90
28725;DHT22;43472;48.980;9.646;2024-02-21T07:30:15;7.00;99.90
28725;DHT22;43472;48.980;9.646;2024-02-21T07:35:18;7.20;99.90
28725;DHT22;43472;48.980;9.646;2024-02-21T07:40:20;7.30;99.90
28725;DHT22;43472;48.980;9.646;2024-02-21T07:45:23;8.90;99.90
28725;DHT22;43472;48.980;9.646;2024-02-21T07:55:28;7.50;99.90
28725;DHT22;43472;48.980;9.646;2024-02-21T08:00:31;7.90;99.90
28725;DHT22;43472;48.980;9.646;2024-02-21T08:05:34;8.30;99.90
28725;DHT22;43472;48.980;9.646;2024-02-21T08:10:37;9.10;99.90
28725;DHT22;43472;48.980;9.646;2024-02-21T08:15:42;9.10;99.90
28725;DHT22;43472;48.980;9.646;2024-02-21T08:20:44;9.30;99.90
28725;DHT22;43472;48.980;9.646;2024-02-21T08:25:47;9.30;99.90
28725;DHT22;43472;48.980;9.646;2024-02-21T08:30:49;9.20;99.90
28725;DHT22;43472;48.980;9.646;2024-02-21T08:35:54;9.70;99.90
28725;DHT22;43472;48.980;9.646;2024-02-21T08:40:56;10.00;99.90
28725;DHT22;43472;48.980;9.646;2024-02-21T08:45:58;10.40;99.90
28725;DHT22;43472;48.980;9.646;2024-02-21T08:51:00;10.80;99.90
28725;DHT22;43472;48.980;9.646;2024-02-21T08:56:02;10.90;99.90
28725;DHT22;43472;48.980;9.646;2024-02-21T09:01:08;10.80;99.90
28725;DHT22;43472;48.980;9.646;2024-02-21T09:06:13;10.70;99.90
28725;DHT22;43472;48.980;9.646;2024-02-21T09:11:17;11.50;99.90
28725;DHT22;43472;48.980;9.646;2024-02-21T09:16:19;10.40;99.90
28725;DHT22;43472;48.980;9.646;2024-02-21T09:21:21;11.10;99.90
28725;DHT22;43472;48.980;9.646;2024-02-21T09:26:26;10.60;99.90
28725;DHT22;43472;48.980;9.646;2024-02-21T09:31:28;11.00;99.90
28725;DHT22;43472;48.980;9.646;2024-02-21T09:36:31;11.30;99.90
28725;DHT22;43472;48.980;9.646;2024-02-21T09:41:36;11.30;99.90
28725;DHT22;43472;48.980;9.646;2024-02-21T09:46:56;11.70;99.90
28725;DHT22;43472;48.980;9.646;2024-02-21T09:52:05;11.60;99.90
28725;DHT22;43472;48.980;9.646;2024-02-21T09:57:08;12.30;99.90
28725;DHT22;43472;48.980;9.646;2024-02-21T10:02:10;12.40;99.90
28725;DHT22;43472;48.980;9.646;2024-02-21T10:07:13;12.40;99.90
28725;DHT22;43472;48.980;9.646;2024-02-21T10:12:15;12.50;99.90
28725;DHT22;43472;48.980;9.646;2024-02-21T10:17:20;11.80;99.90
28725;DHT22;43472;48.980;9.646;2024-02-21T10:22:22;12.40;99.90
28725;DHT22;43472;48.980;9.646;2024-02-21T10:27:26;12.10;99.90
28725;DHT22;43472;48.980;9.646;2024-02-21T10:32:28;12.60;99.90
28725;DHT22;43472;48.980;9.646;2024-02-21T10:37:31;12.70;99.90
28725;DHT22;43472;48.980;9.646;2024-02-21T10:42:36;12.30;99.90
28725;DHT22;43472;48.980;9.646;2024-02-21T10:47:39;12.20;99.90
28725;DHT22;43472;48.980;9.646;2024-02-21T10:58:18;12.60;99.90
28725;DHT22;43472;48.980;9.646;2024-02-21T11:03:20;12.60;99.90
28725;DHT22;43472;48.980;9.646;2024-02-21T11:08:22;14.40;99.90
28725;DHT22;43472;48.980;9.646;2024-02-21T11:13:35;13.10;99.90
28725;DHT22;43472;48.980;9.646;2024-02-21T11:18:40;12.90;99.90
28725;DHT22;43472;48.980;9.646;2024-02-21T11:23:42;13.70;99.90
28725;DHT22;43472;48.980;9.646;2024-02-21T11:28:44;13.50;99.90
28725;DHT22;43472;48.980;9.646;2024-02-21T11:33:47;13.30;99.90
28725;DHT22;43472;48.980;9.646;2024-02-21T11:38:53;13.50;99.90
28725;DHT22;43472;48.980;9.646;2024-02-21T11:43:55;13.70;99.90
28725;DHT22;43472;48.980;9.646;2024-02-21T11:48:57;13.10;99.90
28725;DHT22;43472;48.980;9.646;2024-02-21T11:54:02;13.20;99.90
28725;DHT22;43472;48.980;9.646;2024-02-21T11:59:04;13.40;99.90
28725;DHT22;43472;48.980;9.646;2024-02-21T12:04:08;13.20;99.90
28725;DHT22;43472;48.980;9.646;2024-02-21T12:09:14;13.50;99.90
28725;DHT22;43472;48.980;9.646;2024-02-21T12:14:17;13.40;99.90
28725;DHT22;43472;48.980;9.646;2024-02-21T12:19:20;13.50;99.90
28725;DHT22;43472;48.980;9.646;2024-02-21T12:24:24;13.70;99.90
28725;DHT22;43472;48.980;9.646;2024-02-21T12:29:26;15.00;99.90
28725;DHT22;43472;48.980;9.646;2024-02-21T12:34:28;14.10;99.90
28725;DHT22;43472;48.980;9.646;2024-02-21T12:39:53;14.40;99.90
28725;DHT22;43472;48.980;9.646;2024-02-21T12:44:55;14.60;99.90
28725;DHT22;43472;48.980;9.646;2024-02-21T12:49:57;14.20;99.90
28725;DHT22;43472;48.980;9.646;2024-02-21T12:54:59;13.80;99.90
28725;DHT22;43472;48.980;9.646;2024-02-21T13:00:01;13.60;99.90
28725;DHT22;43472;48.980;9.646;2024-02-21T13:05:03;13.80;99.90
28725;DHT22;43472;48.980;9.646;2024-02-21T13:10:06;13.70;99.90
28725;DHT22;43472;48.980;9.646;2024-02-21T13:15:09;13.70;99.90
28725;DHT22;43472;48.980;9.646;2024-02-21T13:20:15;13.90;99.90
28725;DHT22;43472;48.980;9.646;2024-02-21T13:25:17;13.80;99.90
28725;DHT22;43472;48.980;9.646;2024-02-21T13:30:22;13.80;99.90
28725;DHT22;43472;48.980;9.646;2024-02-21T13:35:24;13.90;99.90
28725;DHT22;43472;48.980;9.646;2024-02-21T13:40:27;13.90;99.90
28725;DHT22;43472;48.980;9.646;2024-02-21T13:45:29;14.10;99.90
28725;DHT22;43472;48.980;9.646;2024-02-21T13:50:32;14.00;99.90
28725;DHT22;43472;48.980;9.646;2024-02-21T13:55:36;14.00;99.90
28725;DHT22;43472;48.980;9.646;2024-02-21T14:00:40;13.80;99.90
28725;DHT22;43472;48.980;9.646;2024-02-21T14:05:42;14.10;99.90
28725;DHT22;43472;48.980;9.646;2024-02-21T14:10:45;14.20;99.90
28725;DHT22;43472;48.980;9.646;2024-02-21T14:15:47;13.70;99.90
28725;DHT22;43472;48.980;9.646;2024-02-21T14:20:51;14.70;99.90
28725;DHT22;43472;48.980;9.646;2024-02-21T14:25:54;13.50;99.90
28725;DHT22;43472;48.980;9.646;2024-02-21T14:36:02;13.60;99.90
28725;DHT22;43472;48.980;9.646;2024-02-21T14:41:04;13.40;99.90
28725;DHT22;43472;48.980;9.646;2024-02-21T14:46:06;13.20;99.90
28725;DHT22;43472;48.980;9.646;2024-02-21T14:51:08;13.20;99.90
28725;DHT22;43472;48.980;9.646;2024-02-21T14:56:14;13.20;99.90
28725;DHT22;43472;48.980;9.646;2024-02-21T15:01:20;13.20;99.90
28725;DHT22;43472;48.980;9.646;2024-02-21T15:06:22;13.30;99.90
28725;DHT22;43472;48.980;9.646;2024-02-21T15:11:24;13.20;99.90
28725;DHT22;43472;48.980;9.646;2024-02-21T15:21:30;13.40;99.90
28725;DHT22;43472;48.980;9.646;2024-02-21T15:26:32;13.40;99.80
28725;DHT22;43472;48.980;9.646;2024-02-21T15:31:34;13.40;99.90
28725;DHT22;43472;48.980;9.646;2024-02-21T15:36:36;13.40;99.90
28725;DHT22;43472;48.980;9.646;2024-02-21T15:41:38;13.40;99.90
28725;DHT22;43472;48.980;9.646;2024-02-21T15:46:40;13.10;99.90
28725;DHT22;43472;48.980;9.646;2024-02-21T15:51:44;13.10;99.90
28725;DHT22;43472;48.980;9.646;2024-02-21T15:56:46;13.00;99.90
28725;DHT22;43472;48.980;9.646;2024-02-21T16:01:49;12.80;99.90
28725;DHT22;43472;48.980;9.646;2024-02-21T16:06:51;12.60;99.90
28725;DHT22;43472;48.980;9.646;2024-02-21T16:11:53;12.40;99.90
28725;DHT22;43472;48.980;9.646;2024-02-21T16:16:58;12.20;99.90
28725;DHT22;43472;48.980;9.646;2024-02-21T16:22:00;12.20;99.90
28725;DHT22;43472;48.980;9.646;2024-02-21T16:27:02;12.10;99.90
28725;DHT22;43472;48.980;9.646;2024-02-21T16:32:11;11.80;99.90
28725;DHT22;43472;48.980;9.646;2024-02-21T16:37:13;11.90;99.90
28725;DHT22;43472;48.980;9.646;2024-02-21T16:42:15;12.40;99.90
28725;DHT22;43472;48.980;9.646;2024-02-21T16:47:17;11.60;99.90
28725;DHT22;43472;48.980;9.646;2024-02-21T16:57:23;11.30;99.90
28725;DHT22;43472;48.980;9.646;2024-02-21T17:02:25;13.10;99.90
28725;DHT22;43472;48.980;9.646;2024-02-21T17:07:28;11.00;99.90
28725;DHT22;43472;48.980;9.646;2024-02-21T17:12:34;11.10;99.90
28725;DHT22;43472;48.980;9.646;2024-02-21T17:17:38;10.80;99.90
28725;DHT22;43472;48.980;9.646;2024-02-21T17:22:40;10.90;99.90
28725;DHT22;43472;48.980;9.646;2024-02-21T17:27:42;10.70;99.90
28725;DHT22;43472;48.980;9.646;2024-02-21T17:32:44;10.60;99.90
28725;DHT22;43472;48.980;9.646;2024-02-21T17:37:46;10.50;99.90
28725;DHT22;43472;48.980;9.646;2024-02-21T17:42:48;10.50;99.90
28725;DHT22;43472;48.980;9.646;2024-02-21T17:47:51;10.40;99.90
28725;DHT22;43472;48.980;9.646;2024-02-21T17:52:54;11.10;99.90
28725;DHT22;43472;48.980;9.646;2024-02-21T17:57:58;10.30;99.90
28725;DHT22;43472;48.980;9.646;2024-02-21T18:03:00;10.30;99.90
28725;DHT22;43472;48.980;9.646;2024-02-21T18:08:02;10.20;99.90
28725;DHT22;43472;48.980;9.646;2024-02-21T18:13:05;10.30;99.90
28725;DHT22;43472;48.980;9.646;2024-02-21T18:18:07;10.20;99.90
28725;DHT22;43472;48.980;9.646;2024-02-21T18:23:09;10.30;99.90
28725;DHT22;43472;48.980;9.646;2024-02-21T18:28:12;10.10;99.90
28725;DHT22;43472;48.980;9.646;2024-02-21T18:33:14;10.10;99.90
28725;DHT22;43472;48.980;9.646;2024-02-21T18:38:17;10.10;99.90
28725;DHT22;43472;48.980;9.646;2024-02-21T18:43:19;10.00;99.90
28725;DHT22;43472;48.980;9.646;2024-02-21T18:48:22;10.00;99.90
28725;DHT22;43472;48.980;9.646;2024-02-21T18:53:24;10.00;99.90
28725;DHT22;43472;48.980;9.646;2024-02-21T18:58:26;10.00;99.90
28725;DHT22;43472;48.980;9.646;2024-02-21T19:03:28;9.90;99.90
28725;DHT22;43472;48.980;9.646;2024-02-21T19:08:30;9.90;99.90
28725;DHT22;43472;48.980;9.646;2024-02-21T19:13:33;10.00;99.90
28725;DHT22;43472;48.980;9.646;2024-02-21T19:18:35;9.90;99.90
28725;DHT22;43472;48.980;9.646;2024-02-21T19:23:37;9.80;99.90
28725;DHT22;43472;48.980;9.646;2024-02-21T19:28:40;9.80;99.90
28725;DHT22;43472;48.980;9.646;2024-02-21T19:33:42;10.00;99.90
28725;DHT22;43472;48.980;9.646;2024-02-21T19:38:45;10.00;99.90
28725;DHT22;43472;48.980;9.646;2024-02-21T19:43:47;10.40;99.90
28725;DHT22;43472;48.980;9.646;2024-02-21T19:48:49;10.50;99.90
28725;DHT22;43472;48.980;9.646;2024-02-21T19:53:52;9.80;99.90
28725;DHT22;43472;48.980;9.646;2024-02-21T19:59:14;9.90;99.90
28725;DHT22;43472;48.980;9.646;2024-02-21T20:04:18;10.30;99.90
28725;DHT22;43472;48.980;9.646;2024-02-21T20:09:21;10.40;99.90
28725;DHT22;43472;48.980;9.646;2024-02-21T20:14:23;10.20;99.90
28725;DHT22;43472;48.980;9.646;2024-02-21T20:19:25;10.20;99.90
28725;DHT22;43472;48.980;9.646;2024-02-21T20:24:27;12.70;99.90
28725;DHT22;43472;48.980;9.646;2024-02-21T20:29:41;10.20;99.90
28725;DHT22;43472;48.980;9.646;2024-02-21T20:34:44;10.40;99.90
28725;DHT22;43472;48.980;9.646;2024-02-21T20:39:46;10.90;99.90
28725;DHT22;43472;48.980;9.646;2024-02-21T20:44:48;10.80;99.90
28725;DHT22;43472;48.980;9.646;2024-02-21T20:49:51;11.10;99.90
28725;DHT22;43472;48.980;9.646;2024-02-21T20:54:55;10.90;99.90
28725;DHT22;43472;48.980;9.646;2024-02-21T20:59:59;10.90;99.90
28725;DHT22;43472;48.980;9.646;2024-02-21T21:05:02;11.10;99.90
28725;DHT22;43472;48.980;9.646;2024-02-21T21:10:06;11.30;99.90
28725;DHT22;43472;48.980;9.646;2024-02-21T21:15:12;11.50;99.90
28725;DHT22;43472;48.980;9.646;2024-02-21T21:20:17;11.40;99.90
28725;DHT22;43472;48.980;9.646;2024-02-21T21:25:20;11.00;99.90
28725;DHT22;43472;48.980;9.646;2024-02-21T21:30:23;11.00;99.90
28725;DHT22;43472;48.980;9.646;2024-02-21T21:35:25;11.90;99.90
28725;DHT22;43472;48.980;9.646;2024-02-21T21:40:31;11.10;99.90
28725;DHT22;43472;48.980;9.646;2024-02-21T21:45:34;11.40;99.90
28725;DHT22;43472;48.980;9.646;2024-02-21T21:50:36;11.50;99.90
28725;DHT22;43472;48.980;9.646;2024-02-21T21:55:39;11.50;99.90
28725;DHT22;43472;48.980;9.646;2024-02-21T22:00:41;11.60;99.90
28725;DHT22;43472;48.980;9.646;2024-02-21T22:05:44;11.60;99.90
28725;DHT22;43472;48.980;9.646;2024-02-21T22:10:46;11.60;99.90
28725;DHT22;43472;48.980;9.646;2024-02-21T22:15:52;11.60;99.90
28725;DHT22;43472;48.980;9.646;2024-02-21T22:20:54;12.30;99.90
28725;DHT22;43472;48.980;9.646;2024-02-21T22:25:56;11.70;99.90
28725;DHT22;43472;48.980;9.646;2024-02-21T22:30:58;11.70;99.90
28725;DHT22;43472;48.980;9.646;2024-02-21T22:36:01;11.80;99.90
28725;DHT22;43472;48.980;9.646;2024-02-21T22:41:04;11.80;99.90
28725;DHT22;43472;48.980;9.646;2024-02-21T22:46:06;11.80;99.90
28725;DHT22;43472;48.980;9.646;2024-02-21T22:51:08;11.60;99.90
28725;DHT22;43472;48.980;9.646;2024-02-21T22:56:10;11.60;99.90
28725;DHT22;43472;48.980;9.646;2024-02-21T23:01:13;11.20;99.90
28725;DHT22;43472;48.980;9.646;2024-02-21T23:06:15;11.20;99.90
28725;DHT22;43472;48.980;9.646;2024-02-21T23:11:17;11.60;99.90
28725;DHT22;43472;48.980;9.646;2024-02-21T23:16:20;11.40;99.90
28725;DHT22;43472;48.980;9.646;2024-02-21T23:21:22;11.10;99.90
28725;DHT22;43472;48.980;9.646;2024-02-21T23:26:28;11.00;99.90
28725;DHT22;43472;48.980;9.646;2024-02-21T23:31:32;10.90;99.90
28725;DHT22;43472;48.980;9.646;2024-02-21T23:36:34;11.00;99.90
28725;DHT22;43472;48.980;9.646;2024-02-21T23:41:37;11.00;99.90
28725;DHT22;43472;48.980;9.646;2024-02-21T23:46:39;11.20;99.90
28725;DHT22;43472;48.980;9.646;2024-02-21T23:51:42;12.90;99.90
28725;DHT22;43472;48.980;9.646;2024-02-21T23:56:45;11.60;99.90
